sensor_id;sensor_type;location;lat;lon;timestamp;P1;durP1;ratioP1;P2;durP2;ratioP2
51174;SDS011;37240;50.104;20.010;2023-07-22T00:03:27;6.55;;;4.50;;
51174;SDS011;37240;50.104;20.010;2023-07-22T00:08:28;8.40;;;4.70;;
51174;SDS011;37240;50.104;20.010;2023-07-22T00:13:28;4.07;;;3.63;;
51174;SDS011;37240;50.104;20.010;2023-07-22T00:18:29;6.75;;;4.47;;
51174;SDS011;37240;50.104;20.010;2023-07-22T00:23:30;8.88;;;4.45;;
51174;SDS011;37240;50.104;20.010;2023-07-22T00:28:30;13.15;;;5.43;;
51174;SDS011;37240;50.104;20.010;2023-07-22T00:33:31;8.20;;;4.90;;
51174;SDS011;37240;50.104;20.010;2023-07-22T00:38:31;8.82;;;5.43;;
51174;SDS011;37240;50.104;20.010;2023-07-22T00:43:32;4.97;;;4.55;;
51174;SDS011;37240;50.104;20.010;2023-07-22T00:48:33;9.90;;;6.18;;
51174;SDS011;37240;50.104;20.010;2023-07-22T00:53:33;8.05;;;5.65;;
51174;SDS011;37240;50.104;20.010;2023-07-22T00:58:34;7.00;;;5.72;;
51174;SDS011;37240;50.104;20.010;2023-07-22T01:03:34;7.30;;;5.75;;
51174;SDS011;37240;50.104;20.010;2023-07-22T01:08:35;9.23;;;6.50;;
51174;SDS011;37240;50.104;20.010;2023-07-22T01:13:35;14.43;;;7.60;;
51174;SDS011;37240;50.104;20.010;2023-07-22T01:18:36;15.50;;;7.45;;
51174;SDS011;37240;50.104;20.010;2023-07-22T01:23:37;12.13;;;6.97;;
51174;SDS011;37240;50.104;20.010;2023-07-22T01:28:39;14.77;;;7.10;;
51174;SDS011;37240;50.104;20.010;2023-07-22T01:33:39;11.18;;;6.40;;
51174;SDS011;37240;50.104;20.010;2023-07-22T01:38:40;12.85;;;6.45;;
51174;SDS011;37240;50.104;20.010;2023-07-22T01:43:40;9.25;;;6.32;;
51174;SDS011;37240;50.104;20.010;2023-07-22T01:48:41;18.65;;;7.18;;
51174;SDS011;37240;50.104;20.010;2023-07-22T01:53:41;10.20;;;7.43;;
51174;SDS011;37240;50.104;20.010;2023-07-22T01:58:42;10.35;;;6.40;;
51174;SDS011;37240;50.104;20.010;2023-07-22T02:03:42;16.23;;;7.10;;
51174;SDS011;37240;50.104;20.010;2023-07-22T02:08:43;12.57;;;7.07;;
51174;SDS011;37240;50.104;20.010;2023-07-22T02:13:44;10.60;;;6.25;;
51174;SDS011;37240;50.104;20.010;2023-07-22T02:18:44;11.88;;;6.53;;
51174;SDS011;37240;50.104;20.010;2023-07-22T02:23:45;13.88;;;7.07;;
51174;SDS011;37240;50.104;20.010;2023-07-22T02:28:45;10.57;;;6.70;;
51174;SDS011;37240;50.104;20.010;2023-07-22T02:33:46;12.13;;;7.30;;
51174;SDS011;37240;50.104;20.010;2023-07-22T02:38:46;14.15;;;7.97;;
51174;SDS011;37240;50.104;20.010;2023-07-22T02:43:47;16.67;;;7.40;;
51174;SDS011;37240;50.104;20.010;2023-07-22T02:48:47;14.07;;;6.72;;
51174;SDS011;37240;50.104;20.010;2023-07-22T02:53:48;11.38;;;6.95;;
51174;SDS011;37240;50.104;20.010;2023-07-22T02:58:48;11.63;;;6.20;;
51174;SDS011;37240;50.104;20.010;2023-07-22T03:03:50;13.27;;;6.85;;
51174;SDS011;37240;50.104;20.010;2023-07-22T03:08:50;10.80;;;6.90;;
51174;SDS011;37240;50.104;20.010;2023-07-22T03:13:51;8.88;;;6.05;;
51174;SDS011;37240;50.104;20.010;2023-07-22T03:18:51;10.48;;;6.15;;
51174;SDS011;37240;50.104;20.010;2023-07-22T03:23:52;10.40;;;6.45;;
51174;SDS011;37240;50.104;20.010;2023-07-22T03:28:53;9.90;;;5.53;;
51174;SDS011;37240;50.104;20.010;2023-07-22T03:33:53;7.72;;;5.18;;
51174;SDS011;37240;50.104;20.010;2023-07-22T03:38:54;11.77;;;4.68;;
51174;SDS011;37240;50.104;20.010;2023-07-22T03:43:54;7.88;;;5.78;;
51174;SDS011;37240;50.104;20.010;2023-07-22T03:48:55;7.75;;;5.22;;
51174;SDS011;37240;50.104;20.010;2023-07-22T03:53:55;11.10;;;5.60;;
51174;SDS011;37240;50.104;20.010;2023-07-22T03:58:56;14.75;;;6.28;;
51174;SDS011;37240;50.104;20.010;2023-07-22T04:03:56;6.78;;;4.95;;
51174;SDS011;37240;50.104;20.010;2023-07-22T04:08:57;6.70;;;5.43;;
51174;SDS011;37240;50.104;20.010;2023-07-22T04:13:57;8.75;;;5.43;;
51174;SDS011;37240;50.104;20.010;2023-07-22T04:18:58;7.95;;;4.60;;
51174;SDS011;37240;50.104;20.010;2023-07-22T04:23:58;57.72;;;27.95;;
51174;SDS011;37240;50.104;20.010;2023-07-22T04:28:59;35.85;;;19.42;;
51174;SDS011;37240;50.104;20.010;2023-07-22T04:33:59;19.15;;;10.75;;
51174;SDS011;37240;50.104;20.010;2023-07-22T04:39:00;14.43;;;7.95;;
51174;SDS011;37240;50.104;20.010;2023-07-22T04:44:01;11.63;;;7.07;;
51174;SDS011;37240;50.104;20.010;2023-07-22T04:49:01;10.98;;;7.30;;
51174;SDS011;37240;50.104;20.010;2023-07-22T04:54:02;14.10;;;9.75;;
51174;SDS011;37240;50.104;20.010;2023-07-22T04:59:02;16.92;;;10.65;;
51174;SDS011;37240;50.104;20.010;2023-07-22T05:04:03;22.42;;;12.15;;
51174;SDS011;37240;50.104;20.010;2023-07-22T05:09:03;22.02;;;11.40;;
51174;SDS011;37240;50.104;20.010;2023-07-22T05:14:04;24.42;;;12.05;;
51174;SDS011;37240;50.104;20.010;2023-07-22T05:19:04;16.73;;;11.88;;
51174;SDS011;37240;50.104;20.010;2023-07-22T05:24:05;16.60;;;10.80;;
51174;SDS011;37240;50.104;20.010;2023-07-22T05:29:05;13.95;;;9.73;;
51174;SDS011;37240;50.104;20.010;2023-07-22T05:34:06;19.70;;;9.98;;
51174;SDS011;37240;50.104;20.010;2023-07-22T05:39:06;15.07;;;9.90;;
51174;SDS011;37240;50.104;20.010;2023-07-22T05:44:07;15.27;;;9.95;;
51174;SDS011;37240;50.104;20.010;2023-07-22T05:49:08;15.57;;;10.70;;
51174;SDS011;37240;50.104;20.010;2023-07-22T05:54:09;13.98;;;10.07;;
51174;SDS011;37240;50.104;20.010;2023-07-22T05:59:09;17.30;;;9.43;;
51174;SDS011;37240;50.104;20.010;2023-07-22T06:04:10;15.52;;;10.45;;
51174;SDS011;37240;50.104;20.010;2023-07-22T06:09:11;45.47;;;23.75;;
51174;SDS011;37240;50.104;20.010;2023-07-22T06:14:11;19.17;;;11.13;;
51174;SDS011;37240;50.104;20.010;2023-07-22T06:19:12;17.52;;;12.20;;
51174;SDS011;37240;50.104;20.010;2023-07-22T06:24:12;13.45;;;9.57;;
51174;SDS011;37240;50.104;20.010;2023-07-22T06:29:13;15.82;;;9.90;;
51174;SDS011;37240;50.104;20.010;2023-07-22T06:34:13;11.88;;;9.23;;
51174;SDS011;37240;50.104;20.010;2023-07-22T06:39:14;25.67;;;10.30;;
51174;SDS011;37240;50.104;20.010;2023-07-22T06:44:14;13.57;;;9.82;;
51174;SDS011;37240;50.104;20.010;2023-07-22T06:49:15;16.42;;;11.30;;
51174;SDS011;37240;50.104;20.010;2023-07-22T06:54:15;15.73;;;9.00;;
51174;SDS011;37240;50.104;20.010;2023-07-22T06:59:16;16.55;;;8.35;;
51174;SDS011;37240;50.104;20.010;2023-07-22T07:04:16;10.65;;;7.82;;
51174;SDS011;37240;50.104;20.010;2023-07-22T07:09:17;10.75;;;7.30;;
51174;SDS011;37240;50.104;20.010;2023-07-22T07:14:18;10.05;;;7.15;;
51174;SDS011;37240;50.104;20.010;2023-07-22T07:19:18;14.95;;;7.82;;
51174;SDS011;37240;50.104;20.010;2023-07-22T07:24:19;11.73;;;6.63;;
51174;SDS011;37240;50.104;20.010;2023-07-22T07:29:19;10.57;;;6.43;;
51174;SDS011;37240;50.104;20.010;2023-07-22T07:34:20;11.10;;;6.30;;
51174;SDS011;37240;50.104;20.010;2023-07-22T07:39:20;10.98;;;5.40;;
51174;SDS011;37240;50.104;20.010;2023-07-22T07:44:21;9.43;;;4.95;;
51174;SDS011;37240;50.104;20.010;2023-07-22T07:49:22;4.15;;;3.75;;
51174;SDS011;37240;50.104;20.010;2023-07-22T07:54:22;4.22;;;2.75;;
51174;SDS011;37240;50.104;20.010;2023-07-22T07:59:23;3.88;;;3.03;;
51174;SDS011;37240;50.104;20.010;2023-07-22T08:04:23;6.60;;;2.42;;
51174;SDS011;37240;50.104;20.010;2023-07-22T08:09:24;3.17;;;2.47;;
51174;SDS011;37240;50.104;20.010;2023-07-22T08:14:24;3.83;;;3.15;;
51174;SDS011;37240;50.104;20.010;2023-07-22T08:19:25;6.22;;;3.08;;
51174;SDS011;37240;50.104;20.010;2023-07-22T08:24:25;4.68;;;3.15;;
51174;SDS011;37240;50.104;20.010;2023-07-22T08:29:26;3.42;;;2.75;;
51174;SDS011;37240;50.104;20.010;2023-07-22T08:34:26;4.68;;;3.03;;
51174;SDS011;37240;50.104;20.010;2023-07-22T08:39:27;14.60;;;2.60;;
51174;SDS011;37240;50.104;20.010;2023-07-22T08:44:28;2.53;;;2.08;;
51174;SDS011;37240;50.104;20.010;2023-07-22T08:49:32;4.13;;;1.58;;
51174;SDS011;37240;50.104;20.010;2023-07-22T08:54:34;2.08;;;1.98;;
51174;SDS011;37240;50.104;20.010;2023-07-22T08:59:35;4.45;;;1.90;;
51174;SDS011;37240;50.104;20.010;2023-07-22T09:04:36;4.18;;;1.83;;
51174;SDS011;37240;50.104;20.010;2023-07-22T09:09:36;1.60;;;1.50;;
51174;SDS011;37240;50.104;20.010;2023-07-22T09:14:37;13.77;;;2.28;;
51174;SDS011;37240;50.104;20.010;2023-07-22T09:19:39;2.05;;;1.60;;
51174;SDS011;37240;50.104;20.010;2023-07-22T09:24:40;1.52;;;1.42;;
51174;SDS011;37240;50.104;20.010;2023-07-22T09:29:41;5.57;;;2.00;;
51174;SDS011;37240;50.104;20.010;2023-07-22T09:35:02;4.40;;;2.10;;
51174;SDS011;37240;50.104;20.010;2023-07-22T09:40:02;2.03;;;1.63;;
51174;SDS011;37240;50.104;20.010;2023-07-22T09:45:18;4.47;;;1.58;;
51174;SDS011;37240;50.104;20.010;2023-07-22T09:50:24;6.55;;;1.88;;
51174;SDS011;37240;50.104;20.010;2023-07-22T09:55:26;1.88;;;1.58;;
51174;SDS011;37240;50.104;20.010;2023-07-22T10:00:29;2.70;;;2.13;;
51174;SDS011;37240;50.104;20.010;2023-07-22T10:05:34;8.30;;;1.70;;
51174;SDS011;37240;50.104;20.010;2023-07-22T10:10:37;2.50;;;2.00;;
51174;SDS011;37240;50.104;20.010;2023-07-22T10:15:38;3.17;;;1.70;;
51174;SDS011;37240;50.104;20.010;2023-07-22T10:20:39;1.83;;;1.73;;
51174;SDS011;37240;50.104;20.010;2023-07-22T10:25:41;4.10;;;1.60;;
51174;SDS011;37240;50.104;20.010;2023-07-22T10:30:42;2.53;;;2.05;;
51174;SDS011;37240;50.104;20.010;2023-07-22T10:35:43;4.28;;;2.28;;
51174;SDS011;37240;50.104;20.010;2023-07-22T10:41:00;5.68;;;1.63;;
51174;SDS011;37240;50.104;20.010;2023-07-22T10:46:12;3.75;;;2.03;;
51174;SDS011;37240;50.104;20.010;2023-07-22T10:51:13;4.25;;;1.30;;
51174;SDS011;37240;50.104;20.010;2023-07-22T10:56:15;5.13;;;1.40;;
51174;SDS011;37240;50.104;20.010;2023-07-22T11:06:28;1.35;;;1.08;;
51174;SDS011;37240;50.104;20.010;2023-07-22T11:11:44;2.15;;;1.10;;
51174;SDS011;37240;50.104;20.010;2023-07-22T11:16:45;4.50;;;1.23;;
51174;SDS011;37240;50.104;20.010;2023-07-22T11:21:47;1.98;;;1.77;;
51174;SDS011;37240;50.104;20.010;2023-07-22T11:26:49;4.38;;;1.20;;
51174;SDS011;37240;50.104;20.010;2023-07-22T11:31:50;1.35;;;1.25;;
51174;SDS011;37240;50.104;20.010;2023-07-22T11:36:52;1.10;;;1.10;;
51174;SDS011;37240;50.104;20.010;2023-07-22T11:41:53;1.88;;;1.20;;
51174;SDS011;37240;50.104;20.010;2023-07-22T11:47:01;5.07;;;1.38;;
51174;SDS011;37240;50.104;20.010;2023-07-22T11:52:04;5.93;;;1.58;;
51174;SDS011;37240;50.104;20.010;2023-07-22T11:57:10;3.85;;;1.65;;
51174;SDS011;37240;50.104;20.010;2023-07-22T12:02:14;7.00;;;1.40;;
51174;SDS011;37240;50.104;20.010;2023-07-22T12:07:22;3.08;;;1.42;;
51174;SDS011;37240;50.104;20.010;2023-07-22T12:17:43;6.03;;;1.98;;
51174;SDS011;37240;50.104;20.010;2023-07-22T12:22:54;1.77;;;1.65;;
51174;SDS011;37240;50.104;20.010;2023-07-22T12:27:55;9.57;;;6.50;;
51174;SDS011;37240;50.104;20.010;2023-07-22T12:32:55;8.73;;;5.10;;
51174;SDS011;37240;50.104;20.010;2023-07-22T12:37:56;2.28;;;2.10;;
51174;SDS011;37240;50.104;20.010;2023-07-22T12:42:56;6.80;;;2.13;;
51174;SDS011;37240;50.104;20.010;2023-07-22T12:47:57;4.95;;;1.60;;
51174;SDS011;37240;50.104;20.010;2023-07-22T12:52:58;3.83;;;1.92;;
51174;SDS011;37240;50.104;20.010;2023-07-22T12:57:59;1.70;;;1.60;;
51174;SDS011;37240;50.104;20.010;2023-07-22T13:02:59;3.10;;;1.50;;
51174;SDS011;37240;50.104;20.010;2023-07-22T13:08:00;7.00;;;1.77;;
51174;SDS011;37240;50.104;20.010;2023-07-22T13:13:00;3.42;;;1.77;;
51174;SDS011;37240;50.104;20.010;2023-07-22T13:18:01;2.85;;;2.03;;
51174;SDS011;37240;50.104;20.010;2023-07-22T13:23:02;23.58;;;2.38;;
51174;SDS011;37240;50.104;20.010;2023-07-22T13:28:02;1.60;;;1.50;;
51174;SDS011;37240;50.104;20.010;2023-07-22T13:33:03;2.15;;;1.52;;
51174;SDS011;37240;50.104;20.010;2023-07-22T13:38:03;1.98;;;1.75;;
51174;SDS011;37240;50.104;20.010;2023-07-22T13:43:04;2.45;;;1.88;;
51174;SDS011;37240;50.104;20.010;2023-07-22T13:48:04;6.47;;;2.80;;
51174;SDS011;37240;50.104;20.010;2023-07-22T13:53:05;2.60;;;1.98;;
51174;SDS011;37240;50.104;20.010;2023-07-22T13:58:05;4.22;;;2.10;;
51174;SDS011;37240;50.104;20.010;2023-07-22T14:03:06;26.50;;;15.57;;
51174;SDS011;37240;50.104;20.010;2023-07-22T14:08:06;37.88;;;21.08;;
51174;SDS011;37240;50.104;20.010;2023-07-22T14:13:07;14.15;;;7.35;;
51174;SDS011;37240;50.104;20.010;2023-07-22T14:18:08;2.70;;;2.50;;
51174;SDS011;37240;50.104;20.010;2023-07-22T14:23:08;6.28;;;2.83;;
51174;SDS011;37240;50.104;20.010;2023-07-22T14:28:09;10.52;;;7.47;;
51174;SDS011;37240;50.104;20.010;2023-07-22T14:33:09;2.42;;;2.22;;
51174;SDS011;37240;50.104;20.010;2023-07-22T14:38:10;2.33;;;2.17;;
51174;SDS011;37240;50.104;20.010;2023-07-22T14:43:10;2.42;;;1.80;;
51174;SDS011;37240;50.104;20.010;2023-07-22T14:48:11;5.38;;;1.77;;
51174;SDS011;37240;50.104;20.010;2023-07-22T14:53:11;1.50;;;1.40;;
51174;SDS011;37240;50.104;20.010;2023-07-22T14:58:12;1.45;;;1.35;;
51174;SDS011;37240;50.104;20.010;2023-07-22T15:03:13;2.50;;;1.42;;
51174;SDS011;37240;50.104;20.010;2023-07-22T15:08:13;2.17;;;1.73;;
51174;SDS011;37240;50.104;20.010;2023-07-22T15:13:14;7.47;;;1.77;;
51174;SDS011;37240;50.104;20.010;2023-07-22T15:18:14;2.00;;;1.90;;
51174;SDS011;37240;50.104;20.010;2023-07-22T15:23:15;3.85;;;1.92;;
51174;SDS011;37240;50.104;20.010;2023-07-22T15:28:15;6.85;;;1.77;;
51174;SDS011;37240;50.104;20.010;2023-07-22T15:33:16;4.00;;;3.60;;
51174;SDS011;37240;50.104;20.010;2023-07-22T15:38:16;6.78;;;3.95;;
51174;SDS011;37240;50.104;20.010;2023-07-22T15:43:17;2.65;;;2.20;;
51174;SDS011;37240;50.104;20.010;2023-07-22T15:48:18;1.77;;;1.67;;
51174;SDS011;37240;50.104;20.010;2023-07-22T15:53:18;1.98;;;1.75;;
51174;SDS011;37240;50.104;20.010;2023-07-22T15:58:19;3.53;;;2.15;;
51174;SDS011;37240;50.104;20.010;2023-07-22T16:03:19;3.92;;;1.85;;
51174;SDS011;37240;50.104;20.010;2023-07-22T16:08:20;2.00;;;1.90;;
51174;SDS011;37240;50.104;20.010;2023-07-22T16:13:20;1.75;;;1.65;;
51174;SDS011;37240;50.104;20.010;2023-07-22T16:18:21;3.15;;;2.30;;
51174;SDS011;37240;50.104;20.010;2023-07-22T16:23:21;2.72;;;2.30;;
51174;SDS011;37240;50.104;20.010;2023-07-22T16:28:22;3.45;;;2.13;;
51174;SDS011;37240;50.104;20.010;2023-07-22T16:33:22;2.53;;;2.35;;
51174;SDS011;37240;50.104;20.010;2023-07-22T16:38:23;5.07;;;1.98;;
51174;SDS011;37240;50.104;20.010;2023-07-22T16:43:24;2.70;;;2.17;;
51174;SDS011;37240;50.104;20.010;2023-07-22T16:48:24;2.15;;;2.00;;
51174;SDS011;37240;50.104;20.010;2023-07-22T16:53:25;2.63;;;2.40;;
51174;SDS011;37240;50.104;20.010;2023-07-22T16:58:25;2.50;;;2.30;;
51174;SDS011;37240;50.104;20.010;2023-07-22T17:03:26;3.28;;;2.75;;
51174;SDS011;37240;50.104;20.010;2023-07-22T17:08:26;3.67;;;3.38;;
51174;SDS011;37240;50.104;20.010;2023-07-22T17:13:27;6.05;;;5.32;;
51174;SDS011;37240;50.104;20.010;2023-07-22T17:18:28;4.53;;;4.10;;
51174;SDS011;37240;50.104;20.010;2023-07-22T17:23:28;3.38;;;3.10;;
51174;SDS011;37240;50.104;20.010;2023-07-22T17:28:29;3.22;;;2.92;;
51174;SDS011;37240;50.104;20.010;2023-07-22T17:33:29;3.17;;;2.88;;
51174;SDS011;37240;50.104;20.010;2023-07-22T17:38:30;5.15;;;3.30;;
51174;SDS011;37240;50.104;20.010;2023-07-22T17:43:30;4.93;;;3.20;;
51174;SDS011;37240;50.104;20.010;2023-07-22T17:48:31;7.07;;;3.00;;
51174;SDS011;37240;50.104;20.010;2023-07-22T17:53:32;4.05;;;3.13;;
51174;SDS011;37240;50.104;20.010;2023-07-22T17:58:32;6.95;;;5.80;;
51174;SDS011;37240;50.104;20.010;2023-07-22T18:03:33;9.52;;;5.03;;
51174;SDS011;37240;50.104;20.010;2023-07-22T18:08:33;11.13;;;4.57;;
51174;SDS011;37240;50.104;20.010;2023-07-22T18:13:34;7.40;;;4.95;;
51174;SDS011;37240;50.104;20.010;2023-07-22T18:18:34;11.02;;;5.57;;
51174;SDS011;37240;50.104;20.010;2023-07-22T18:23:35;8.82;;;4.65;;
51174;SDS011;37240;50.104;20.010;2023-07-22T18:28:35;7.18;;;4.25;;
51174;SDS011;37240;50.104;20.010;2023-07-22T18:33:36;8.55;;;5.13;;
51174;SDS011;37240;50.104;20.010;2023-07-22T18:38:36;11.43;;;4.18;;
51174;SDS011;37240;50.104;20.010;2023-07-22T18:43:37;8.57;;;4.65;;
51174;SDS011;37240;50.104;20.010;2023-07-22T18:48:37;7.45;;;4.18;;
51174;SDS011;37240;50.104;20.010;2023-07-22T18:53:38;8.27;;;4.20;;
51174;SDS011;37240;50.104;20.010;2023-07-22T18:58:39;8.50;;;3.80;;
51174;SDS011;37240;50.104;20.010;2023-07-22T19:03:39;13.85;;;4.15;;
51174;SDS011;37240;50.104;20.010;2023-07-22T19:08:40;9.27;;;4.78;;
51174;SDS011;37240;50.104;20.010;2023-07-22T19:13:40;7.85;;;4.75;;
51174;SDS011;37240;50.104;20.010;2023-07-22T19:18:41;7.75;;;4.50;;
51174;SDS011;37240;50.104;20.010;2023-07-22T19:23:41;7.55;;;5.07;;
51174;SDS011;37240;50.104;20.010;2023-07-22T19:28:42;8.45;;;5.45;;
51174;SDS011;37240;50.104;20.010;2023-07-22T19:33:42;4.95;;;4.30;;
51174;SDS011;37240;50.104;20.010;2023-07-22T19:38:43;9.77;;;5.45;;
51174;SDS011;37240;50.104;20.010;2023-07-22T19:43:44;6.82;;;4.32;;
51174;SDS011;37240;50.104;20.010;2023-07-22T19:48:44;9.43;;;4.97;;
51174;SDS011;37240;50.104;20.010;2023-07-22T19:53:46;5.18;;;4.40;;
51174;SDS011;37240;50.104;20.010;2023-07-22T19:58:47;5.60;;;4.55;;
51174;SDS011;37240;50.104;20.010;2023-07-22T20:03:49;9.63;;;4.57;;
51174;SDS011;37240;50.104;20.010;2023-07-22T20:08:50;6.63;;;4.43;;
51174;SDS011;37240;50.104;20.010;2023-07-22T20:13:51;12.10;;;5.78;;
51174;SDS011;37240;50.104;20.010;2023-07-22T20:18:51;7.15;;;4.75;;
51174;SDS011;37240;50.104;20.010;2023-07-22T20:23:52;10.45;;;5.35;;
51174;SDS011;37240;50.104;20.010;2023-07-22T20:28:52;10.38;;;4.97;;
51174;SDS011;37240;50.104;20.010;2023-07-22T20:33:53;10.07;;;5.05;;
51174;SDS011;37240;50.104;20.010;2023-07-22T20:38:55;7.18;;;5.00;;
51174;SDS011;37240;50.104;20.010;2023-07-22T20:43:57;9.25;;;5.45;;
51174;SDS011;37240;50.104;20.010;2023-07-22T20:48:58;9.52;;;6.25;;
51174;SDS011;37240;50.104;20.010;2023-07-22T20:53:58;10.75;;;6.75;;
51174;SDS011;37240;50.104;20.010;2023-07-22T20:58:59;9.98;;;6.57;;
51174;SDS011;37240;50.104;20.010;2023-07-22T21:04:00;14.52;;;8.27;;
51174;SDS011;37240;50.104;20.010;2023-07-22T21:09:00;22.40;;;11.52;;
51174;SDS011;37240;50.104;20.010;2023-07-22T21:14:01;23.38;;;11.48;;
51174;SDS011;37240;50.104;20.010;2023-07-22T21:19:01;14.15;;;8.02;;
51174;SDS011;37240;50.104;20.010;2023-07-22T21:24:02;18.58;;;10.25;;
51174;SDS011;37240;50.104;20.010;2023-07-22T21:29:03;23.85;;;11.80;;
51174;SDS011;37240;50.104;20.010;2023-07-22T21:34:03;15.93;;;9.65;;
51174;SDS011;37240;50.104;20.010;2023-07-22T21:39:04;19.55;;;9.88;;
51174;SDS011;37240;50.104;20.010;2023-07-22T21:44:05;15.18;;;9.05;;
51174;SDS011;37240;50.104;20.010;2023-07-22T21:49:05;14.75;;;8.75;;
51174;SDS011;37240;50.104;20.010;2023-07-22T21:54:06;15.82;;;8.77;;
51174;SDS011;37240;50.104;20.010;2023-07-22T21:59:06;29.77;;;8.40;;
51174;SDS011;37240;50.104;20.010;2023-07-22T22:04:07;15.05;;;8.80;;
51174;SDS011;37240;50.104;20.010;2023-07-22T22:09:07;12.52;;;7.18;;
51174;SDS011;37240;50.104;20.010;2023-07-22T22:14:08;11.23;;;7.18;;
51174;SDS011;37240;50.104;20.010;2023-07-22T22:19:09;14.55;;;7.63;;
51174;SDS011;37240;50.104;20.010;2023-07-22T22:24:09;25.08;;;7.63;;
51174;SDS011;37240;50.104;20.010;2023-07-22T22:29:10;15.23;;;7.45;;
51174;SDS011;37240;50.104;20.010;2023-07-22T22:34:10;15.18;;;7.28;;
51174;SDS011;37240;50.104;20.010;2023-07-22T22:39:11;17.48;;;7.45;;
51174;SDS011;37240;50.104;20.010;2023-07-22T22:44:11;15.80;;;7.85;;
51174;SDS011;37240;50.104;20.010;2023-07-22T22:49:12;15.20;;;7.70;;
51174;SDS011;37240;50.104;20.010;2023-07-22T22:54:13;22.95;;;9.63;;
51174;SDS011;37240;50.104;20.010;2023-07-22T22:59:13;16.30;;;9.30;;
51174;SDS011;37240;50.104;20.010;2023-07-22T23:04:14;19.55;;;9.95;;
51174;SDS011;37240;50.104;20.010;2023-07-22T23:09:14;19.08;;;7.97;;
51174;SDS011;37240;50.104;20.010;2023-07-22T23:14:15;17.95;;;8.52;;
51174;SDS011;37240;50.104;20.010;2023-07-22T23:19:15;14.88;;;8.23;;
51174;SDS011;37240;50.104;20.010;2023-07-22T23:24:17;18.88;;;8.40;;
51174;SDS011;37240;50.104;20.010;2023-07-22T23:29:18;19.55;;;10.02;;
51174;SDS011;37240;50.104;20.010;2023-07-22T23:34:18;13.18;;;8.02;;
51174;SDS011;37240;50.104;20.010;2023-07-22T23:39:19;15.55;;;7.43;;
51174;SDS011;37240;50.104;20.010;2023-07-22T23:44:19;13.82;;;7.30;;
51174;SDS011;37240;50.104;20.010;2023-07-22T23:49:20;11.57;;;6.00;;
51174;SDS011;37240;50.104;20.010;2023-07-22T23:54:20;13.20;;;6.18;;
51174;SDS011;37240;50.104;20.010;2023-07-22T23:59:21;9.40;;;5.65;;
